createdAt,value
2016-12-23T00:00:20.818Z,1.79
2016-12-23T00:01:31.200Z,1.92
2016-12-23T00:02:41.561Z,1.9
2016-12-23T00:03:51.571Z,1.97
2016-12-23T00:05:01.605Z,1.97
2016-12-23T00:06:11.953Z,2.04
2016-12-23T00:07:21.974Z,2.01
2016-12-23T00:08:32.292Z,2.02
2016-12-23T00:09:42.308Z,1.97
2016-12-23T00:10:52.309Z,2.04
2016-12-23T00:12:02.335Z,2.06
2016-12-23T00:13:12.343Z,1.98
2016-12-23T00:14:22.669Z,2.02
2016-12-23T00:15:32.699Z,2.05
2016-12-23T00:16:42.748Z,2.02
2016-12-23T00:17:52.773Z,2.02
2016-12-23T00:19:03.087Z,2.02
2016-12-23T00:20:13.382Z,1.92
2016-12-23T00:21:23.389Z,1.97
2016-12-23T00:22:33.386Z,2.02
2016-12-23T00:23:43.715Z,1.97
2016-12-23T00:24:54.034Z,2.04
2016-12-23T00:26:04.350Z,2.01
2016-12-23T00:27:14.673Z,1.98
2016-12-23T00:28:24.677Z,1.98
2016-12-23T00:29:35.001Z,2.08
2016-12-23T00:30:45.319Z,2.11
2016-12-23T00:31:55.665Z,2.06
2016-12-23T00:33:05.990Z,2.05
2016-12-23T00:34:15.987Z,2.02
2016-12-23T00:35:26.310Z,2.11
2016-12-23T00:36:36.657Z,2.02
2016-12-23T00:37:46.718Z,2.05
2016-12-23T00:38:56.729Z,2.09
2016-12-23T00:40:07.043Z,2.12
2016-12-23T00:41:17.349Z,2.11
2016-12-23T00:42:27.369Z,2.18
2016-12-23T00:43:37.700Z,2.12
2016-12-23T00:44:48.043Z,2.15
2016-12-23T00:45:58.373Z,2.16
2016-12-23T00:47:08.062Z,2.15
2016-12-23T00:48:17.760Z,2.11
2016-12-23T00:49:28.105Z,2.12
2016-12-23T00:50:38.113Z,2.09
2016-12-23T00:51:48.438Z,2.13
2016-12-23T00:52:58.762Z,2.12
2016-12-23T00:54:09.097Z,2.09
2016-12-23T00:55:19.428Z,2.08
2016-12-23T00:56:29.762Z,2.04
2016-12-23T00:57:39.781Z,2.11
2016-12-23T00:58:49.799Z,2.16
2016-12-23T01:00:00.125Z,2.2
2016-12-23T01:01:10.457Z,2.13
2016-12-23T01:02:20.779Z,2.22
2016-12-23T01:03:31.100Z,2.23
2016-12-23T01:04:41.411Z,2.12
2016-12-23T01:05:51.763Z,2.12
2016-12-23T01:07:02.077Z,2.22
2016-12-23T01:08:12.079Z,2.23
2016-12-23T01:09:22.157Z,2.09
2016-12-23T01:10:32.481Z,2.12
2016-12-23T01:11:42.868Z,2.02
2016-12-23T01:12:53.211Z,2.18
2016-12-23T01:14:03.226Z,2.02
2016-12-23T01:15:13.229Z,2.15
2016-12-23T01:16:23.530Z,2.18
2016-12-23T01:17:33.237Z,2.15
2016-12-23T01:18:42.933Z,2.22
2016-12-23T01:19:52.944Z,2.15
2016-12-23T01:21:03.265Z,2.13
2016-12-23T01:22:13.592Z,2.2
2016-12-23T01:23:23.594Z,2.16
2016-12-23T01:24:33.911Z,2.22
2016-12-23T01:25:43.933Z,2.16
2016-12-23T01:26:54.250Z,2.13
2016-12-23T01:28:04.568Z,2.13
2016-12-23T01:29:14.894Z,2.16
2016-12-23T01:30:25.217Z,2.12
2016-12-23T01:31:35.236Z,2.16
2016-12-23T01:32:45.553Z,2.23
2016-12-23T01:33:55.876Z,2.22
2016-12-23T01:35:05.886Z,2.18
2016-12-23T01:36:16.208Z,2.16
2016-12-23T01:37:26.545Z,2.26
2016-12-23T01:38:36.857Z,2.2
2016-12-23T01:39:47.195Z,2.31
2016-12-23T01:40:57.530Z,2.31
2016-12-23T01:42:07.857Z,2.3
2016-12-23T01:43:17.569Z,2.3
2016-12-23T01:44:27.898Z,2.34
2016-12-23T01:45:38.232Z,2.34
2016-12-23T01:46:48.572Z,2.29
2016-12-23T01:47:58.620Z,2.33
2016-12-23T01:49:08.628Z,2.26
2016-12-23T01:50:18.940Z,2.2
2016-12-23T01:51:29.262Z,2.2
2016-12-23T01:52:39.585Z,2.16
2016-12-23T01:53:49.919Z,2.23
2016-12-23T01:55:00.230Z,2.26
2016-12-23T01:56:09.975Z,2.15
2016-12-23T01:57:20.285Z,2.22
2016-12-23T01:58:30.615Z,2.15
2016-12-23T01:59:40.943Z,2.2
2016-12-23T02:00:51.273Z,2.23
2016-12-23T02:02:01.600Z,2.18
2016-12-23T02:03:11.923Z,2.24
2016-12-23T02:04:21.923Z,2.29
2016-12-23T02:05:32.274Z,2.15
2016-12-23T02:06:42.583Z,2.13
2016-12-23T02:07:52.900Z,2.15
2016-12-23T02:09:03.226Z,2.22
2016-12-23T02:10:13.244Z,2.18
2016-12-23T02:11:23.558Z,2.15
2016-12-23T02:12:33.887Z,2.15
2016-12-23T02:13:44.211Z,2.13
2016-12-23T02:14:54.232Z,2.16
2016-12-23T02:16:04.546Z,2.27
2016-12-23T02:17:14.857Z,2.15
2016-12-23T02:18:24.862Z,2.09
2016-12-23T02:19:35.195Z,2.12
2016-12-23T02:20:45.207Z,2.16
2016-12-23T02:21:54.909Z,2.11
2016-12-23T02:23:05.139Z,2.22
2016-12-23T02:24:15.453Z,2.08
2016-12-23T02:25:25.769Z,2.16
2016-12-23T02:26:36.101Z,2.18
2016-12-23T02:27:46.430Z,2.18
2016-12-23T02:28:56.424Z,2.09
2016-12-23T02:30:06.421Z,2.09
2016-12-23T02:31:16.116Z,2.16
2016-12-23T02:32:26.430Z,2.22
2016-12-23T02:33:36.745Z,2.16
2016-12-23T02:34:47.056Z,2.18
2016-12-23T02:35:57.064Z,2.15
2016-12-23T02:37:07.080Z,2.22
2016-12-23T02:38:17.083Z,2.22
2016-12-23T02:39:27.083Z,2.34
2016-12-23T02:40:37.404Z,2.33
2016-12-23T02:41:47.755Z,2.29
2016-12-23T02:42:58.086Z,2.33
2016-12-23T02:44:08.431Z,2.33
2016-12-23T02:45:18.425Z,2.33
2016-12-23T02:46:28.424Z,2.33
2016-12-23T02:47:38.117Z,2.38
2016-12-23T02:48:48.437Z,2.3
2016-12-23T02:49:58.437Z,2.22
2016-12-23T02:51:08.759Z,2.23
2016-12-23T02:52:18.780Z,2.31
2016-12-23T02:53:29.098Z,2.23
2016-12-23T02:54:39.431Z,2.18
2016-12-23T02:55:49.754Z,2.26
2016-12-23T02:57:00.065Z,2.2
2016-12-23T02:58:10.074Z,2.2
2016-12-23T02:59:20.076Z,2.18
2016-12-23T03:00:30.398Z,2.23
2016-12-23T03:01:40.095Z,2.15
2016-12-23T03:33:07.487Z,-0.98
2016-12-23T03:34:17.472Z,-1.04
2016-12-23T03:35:27.468Z,-0.98
2016-12-23T03:36:37.777Z,-0.91
2016-12-23T03:37:48.118Z,-0.87
2016-12-23T03:38:58.438Z,-0.76
2016-12-23T03:40:08.757Z,-0.59
2016-12-23T03:41:19.077Z,-0.48
2016-12-23T03:42:29.080Z,-0.3
2016-12-23T03:43:39.092Z,-0.22
2016-12-23T03:44:49.413Z,0.09
2016-12-23T03:45:59.721Z,0.26
2016-12-23T03:47:09.741Z,0.38
2016-12-23T03:48:20.058Z,0.5
2016-12-23T03:49:30.069Z,0.69
2016-12-23T03:50:40.085Z,0.82
2016-12-23T03:51:50.393Z,0.89
2016-12-23T03:53:00.401Z,0.97
2016-12-23T03:54:10.402Z,1.11
2016-12-23T03:55:20.405Z,1.21
2016-12-23T03:56:30.711Z,1.24
2016-12-23T03:57:41.032Z,1.29
2016-12-23T03:58:51.348Z,1.36
2016-12-23T04:00:01.358Z,1.42
2016-12-23T04:01:11.372Z,1.47
2016-12-23T04:02:21.374Z,1.6
2016-12-23T04:03:31.381Z,1.64
2016-12-23T04:04:41.717Z,1.57
2016-12-23T04:05:52.029Z,1.72
2016-12-23T04:07:02.044Z,1.72
2016-12-23T04:08:12.368Z,1.68
2016-12-23T04:09:22.414Z,1.87
2016-12-23T04:10:32.406Z,1.76
2016-12-23T04:11:42.721Z,1.78
2016-12-23T04:12:53.053Z,1.84
2016-12-23T04:14:03.375Z,1.86
2016-12-23T04:15:13.711Z,1.92
2016-12-23T04:16:24.034Z,1.94
2016-12-23T04:17:34.050Z,1.94
2016-12-23T04:18:44.092Z,1.97
2016-12-23T04:19:54.103Z,1.93
2016-12-23T04:21:04.406Z,1.97
2016-12-23T04:22:14.422Z,2.02
2016-12-23T04:23:24.765Z,1.94
2016-12-23T04:24:35.090Z,1.98
2016-12-23T04:25:45.412Z,1.93
2016-12-23T04:26:55.720Z,2.04
2016-12-23T04:28:05.736Z,1.92
2016-12-23T04:29:16.065Z,1.94
2016-12-23T04:30:26.105Z,1.98
2016-12-23T04:31:36.421Z,2.04
2016-12-23T04:32:46.437Z,2.02
2016-12-23T04:33:56.451Z,1.97
2016-12-23T04:35:06.785Z,1.98
2016-12-23T04:36:16.792Z,2.12
2016-12-23T04:37:27.111Z,2.12
2016-12-23T04:38:37.450Z,2.18
2016-12-23T04:39:47.464Z,2.11
2016-12-23T04:40:57.460Z,2.02
2016-12-23T04:42:07.786Z,2.12
2016-12-23T04:43:18.132Z,2.18
2016-12-23T04:44:28.460Z,2.05
2016-12-23T04:45:38.776Z,2.08
2016-12-23T04:46:48.483Z,2.11
2016-12-23T04:47:58.791Z,2.08
2016-12-23T04:49:09.106Z,2.12
2016-12-23T04:50:19.433Z,2.04
2016-12-23T04:51:29.745Z,2.06
2016-12-23T04:52:40.068Z,2.06
2016-12-23T04:53:50.378Z,2.09
2016-12-23T04:55:00.704Z,2.01
2016-12-23T04:56:10.738Z,2.01
2016-12-23T04:57:21.063Z,2.12
2016-12-23T04:58:31.384Z,2.06
2016-12-23T04:59:41.396Z,2.09
2016-12-23T05:00:51.724Z,2.18
2016-12-23T05:02:01.730Z,2.12
2016-12-23T05:03:12.047Z,2.15
2016-12-23T05:04:22.374Z,2.18
2016-12-23T05:05:32.372Z,2.16
2016-12-23T05:06:42.697Z,2.12
2016-12-23T05:07:53.024Z,2.22
2016-12-23T05:09:03.321Z,2.2
2016-12-23T05:10:13.632Z,2.18
2016-12-23T05:11:23.958Z,2.15
2016-12-23T05:12:34.025Z,2.12
2016-12-23T05:13:44.358Z,2.2
2016-12-23T05:14:54.675Z,2.22
2016-12-23T05:16:04.986Z,2.3
2016-12-23T05:17:14.977Z,2.23
2016-12-23T05:18:25.299Z,2.2
2016-12-23T05:19:35.621Z,2.2
2016-12-23T05:20:45.942Z,2.16
2016-12-23T05:21:55.959Z,2.16
2016-12-23T05:23:05.983Z,2.15
2016-12-23T05:24:16.318Z,2.18
2016-12-23T05:25:26.340Z,2.18
2016-12-23T05:26:36.346Z,2.18
2016-12-23T05:27:46.390Z,2.06
2016-12-23T05:28:56.737Z,2.12
2016-12-23T05:30:07.060Z,2.15
2016-12-23T05:31:16.762Z,2.15
2016-12-23T05:32:26.770Z,2.23
2016-12-23T05:33:36.767Z,2.18
2016-12-23T05:34:47.084Z,2.29
2016-12-23T05:35:57.109Z,2.24
2016-12-23T05:37:07.650Z,2.23
2016-12-23T05:38:17.668Z,2.31
2016-12-23T05:39:27.994Z,2.24
2016-12-23T05:40:38.026Z,2.31
2016-12-23T05:41:48.338Z,2.2
2016-12-23T05:42:58.651Z,2.23
2016-12-23T05:44:08.660Z,2.23
2016-12-23T05:45:18.978Z,2.22
2016-12-23T05:46:29.326Z,2.29
2016-12-23T05:47:39.681Z,2.38
2016-12-23T05:48:49.383Z,2.29
2016-12-23T05:49:59.705Z,2.27
2016-12-23T05:51:09.407Z,2.34
2016-12-23T05:52:19.709Z,2.24
2016-12-23T05:53:29.725Z,2.18
2016-12-23T05:54:40.039Z,2.23
2016-12-23T05:55:50.359Z,2.22
2016-12-23T05:57:00.360Z,2.16
2016-12-23T05:58:10.682Z,2.18
2016-12-23T05:59:20.676Z,2.27
2016-12-23T06:00:31.018Z,2.23
2016-12-23T06:01:41.321Z,2.23
2016-12-23T06:02:51.663Z,2.23
2016-12-23T06:04:01.663Z,2.22
2016-12-23T06:05:11.987Z,2.29
2016-12-23T06:06:22.304Z,2.18
2016-12-23T06:07:32.308Z,2.26
2016-12-23T06:08:42.628Z,2.26
2016-12-23T06:09:52.944Z,2.27
2016-12-23T06:11:02.962Z,2.29
2016-12-23T06:12:13.289Z,2.27
2016-12-23T06:13:23.606Z,2.26
2016-12-23T06:14:33.603Z,2.29
2016-12-23T06:15:43.952Z,2.33
2016-12-23T06:16:54.260Z,2.3
2016-12-23T06:18:04.266Z,2.33
2016-12-23T06:19:14.273Z,2.31
2016-12-23T06:20:24.275Z,2.31
2016-12-23T06:21:34.283Z,2.36
2016-12-23T06:22:44.598Z,2.4
2016-12-23T06:23:54.605Z,2.42
2016-12-23T06:25:04.943Z,2.4
2016-12-23T06:26:15.268Z,2.38
2016-12-23T06:27:25.576Z,2.41
2016-12-23T06:28:35.272Z,2.42
2016-12-23T06:29:45.274Z,2.34
2016-12-23T06:30:55.598Z,2.4
2016-12-23T06:32:05.922Z,2.45
2016-12-23T06:33:15.929Z,2.44
2016-12-23T06:34:26.236Z,2.44
2016-12-23T06:35:36.572Z,2.45
2016-12-23T06:36:46.889Z,2.34
2016-12-23T06:37:56.891Z,2.4
2016-12-23T06:39:07.215Z,2.41
2016-12-23T06:40:17.534Z,2.45
2016-12-23T06:41:27.548Z,2.42
2016-12-23T06:42:37.544Z,2.4
2016-12-23T06:43:47.860Z,2.44
2016-12-23T06:44:57.865Z,2.47
2016-12-23T06:46:07.559Z,2.47
2016-12-23T06:47:17.877Z,2.41
2016-12-23T06:48:28.191Z,2.44
2016-12-23T06:49:38.185Z,2.44
2016-12-23T06:50:48.505Z,2.42
2016-12-23T06:51:58.825Z,2.41
2016-12-23T06:53:08.519Z,2.29
2016-12-23T06:54:18.835Z,2.31
2016-12-23T06:55:29.138Z,2.41
2016-12-23T06:56:39.472Z,2.44
2016-12-23T06:57:49.476Z,2.36
2016-12-23T06:58:59.821Z,2.41
2016-12-23T07:00:10.154Z,2.38
2016-12-23T07:01:20.164Z,2.47
2016-12-23T07:02:30.173Z,2.49
2016-12-23T07:03:40.505Z,2.38
2016-12-23T07:04:50.821Z,2.42
2016-12-23T07:06:01.152Z,2.52
2016-12-23T07:07:11.479Z,2.48
2016-12-23T07:08:21.496Z,2.47
2016-12-23T07:09:31.498Z,2.58
2016-12-23T07:10:41.809Z,2.52
2016-12-23T07:11:51.811Z,2.58
2016-12-23T07:13:02.126Z,2.55
2016-12-23T07:14:12.180Z,2.65
2016-12-23T07:15:22.510Z,2.62
2016-12-23T07:16:32.831Z,2.62
2016-12-23T07:17:43.143Z,2.63
2016-12-23T07:18:53.146Z,2.66
2016-12-23T07:20:03.153Z,2.72
2016-12-23T07:21:13.482Z,2.76
2016-12-23T07:22:23.805Z,2.8
2016-12-23T07:23:34.117Z,2.83
2016-12-23T07:24:44.440Z,2.72
2016-12-23T07:25:54.742Z,2.77
2016-12-23T07:27:05.073Z,2.8
2016-12-23T07:28:15.385Z,2.83
2016-12-23T07:29:25.706Z,2.85
2016-12-23T07:30:35.701Z,2.83
2016-12-23T07:31:45.714Z,2.88
2016-12-23T07:32:56.045Z,2.99
2016-12-23T07:34:06.357Z,2.96
2016-12-23T07:35:16.675Z,3.14
2016-12-23T07:36:26.691Z,3.17
2016-12-23T07:37:37.012Z,3.16
2016-12-23T07:38:47.004Z,3.11
2016-12-23T07:39:57.006Z,3.09
2016-12-23T07:41:07.021Z,3.16
2016-12-23T07:42:17.344Z,3.21
2016-12-23T07:43:27.686Z,3.11
2016-12-23T07:44:38.002Z,3.06
2016-12-23T07:45:48.350Z,3.14
2016-12-23T07:46:58.673Z,3.11
2016-12-23T07:48:08.992Z,3.09
2016-12-23T07:49:18.378Z,3.11
2016-12-23T07:50:28.407Z,3.14
2016-12-23T07:51:38.743Z,3.09
2016-12-23T07:52:49.065Z,3.09
2016-12-23T07:53:59.617Z,3.11
2016-12-23T07:55:09.929Z,3.14
2016-12-23T07:56:20.259Z,3.14
2016-12-23T07:57:30.592Z,3.2
2016-12-23T07:58:40.830Z,3.42
2016-12-23T07:59:50.851Z,3.32
2016-12-23T08:01:01.177Z,3.43
2016-12-23T08:02:11.490Z,3.56
2016-12-23T08:03:21.826Z,3.51
2016-12-23T08:04:32.167Z,3.51
2016-12-23T08:05:42.489Z,3.53
2016-12-23T08:06:52.823Z,3.56
2016-12-23T08:08:02.855Z,3.42
2016-12-23T08:09:13.183Z,3.43
2016-12-23T08:10:22.862Z,3.35
2016-12-23T08:11:33.191Z,3.45
2016-12-23T08:12:43.193Z,3.4
2016-12-23T08:13:53.520Z,3.54
2016-12-23T08:15:03.838Z,3.58
2016-12-23T08:16:14.154Z,3.67
2016-12-23T08:17:24.167Z,3.76
2016-12-23T08:18:34.474Z,3.82
2016-12-23T08:19:44.787Z,3.85
2016-12-23T08:20:55.118Z,4
2016-12-23T08:22:05.133Z,3.99
2016-12-23T08:23:15.462Z,4.04
2016-12-23T08:24:25.459Z,4.11
2016-12-23T08:25:35.470Z,4.08
2016-12-23T08:26:45.478Z,4.2
2016-12-23T08:27:55.784Z,4.14
2016-12-23T08:29:06.105Z,4.24
2016-12-23T08:30:16.437Z,4.12
2016-12-23T08:31:26.455Z,4.26
2016-12-23T08:32:36.759Z,4.21
2016-12-23T08:33:47.082Z,4.35
2016-12-23T08:34:57.416Z,4.38
2016-12-23T08:36:07.745Z,4.42
2016-12-23T08:37:17.760Z,4.51
2016-12-23T08:38:28.085Z,4.5
2016-12-23T08:39:38.095Z,4.51
2016-12-23T08:40:48.415Z,4.42
2016-12-23T08:41:58.728Z,4.33
2016-12-23T08:43:09.054Z,4.33
2016-12-23T08:44:19.078Z,4.26
2016-12-23T08:45:29.408Z,4.18
2016-12-23T08:46:39.720Z,4.15
2016-12-23T08:47:49.730Z,4.26
2016-12-23T08:48:59.750Z,4.24
2016-12-23T08:50:10.080Z,4.22
2016-12-23T08:51:20.087Z,4.17
2016-12-23T08:52:30.398Z,4.39
2016-12-23T08:53:40.709Z,4.33
2016-12-23T08:54:50.717Z,4.47
2016-12-23T08:56:00.726Z,4.54
2016-12-23T08:57:10.733Z,4.57
2016-12-23T08:58:20.751Z,4.6
2016-12-23T08:59:31.082Z,4.65
2016-12-23T09:00:41.419Z,4.68
2016-12-23T09:01:51.755Z,4.69
2016-12-23T09:03:01.774Z,4.65
2016-12-23T09:04:11.810Z,4.74
2016-12-23T09:05:21.823Z,4.79
2016-12-23T09:06:32.163Z,4.78
2016-12-23T09:07:42.186Z,4.83
2016-12-23T09:08:52.500Z,4.76
2016-12-23T09:10:02.812Z,4.83
2016-12-23T09:11:13.120Z,4.75
2016-12-23T09:12:23.118Z,4.76
2016-12-23T09:13:33.427Z,4.84
2016-12-23T09:14:43.125Z,4.79
2016-12-23T09:15:53.461Z,4.98
2016-12-23T09:17:03.778Z,5.03
2016-12-23T09:18:14.114Z,4.97
2016-12-23T09:19:24.475Z,5.09
2016-12-23T09:20:34.804Z,5.03
2016-12-23T09:21:45.177Z,5.1
2016-12-23T09:22:55.552Z,5.1
2016-12-23T09:24:05.258Z,5
2016-12-23T09:25:15.614Z,5.02
2016-12-23T09:26:25.630Z,5.06
2016-12-23T09:27:35.956Z,5.15
2016-12-23T09:28:46.321Z,5.16
2016-12-23T09:29:56.350Z,5.16
2016-12-23T09:31:06.381Z,5.21
2016-12-23T09:32:16.730Z,5.31
2016-12-23T09:33:26.796Z,5.28
2016-12-23T09:34:37.146Z,5.48
2016-12-23T09:35:47.484Z,5.57
2016-12-23T09:36:57.835Z,5.54
2016-12-23T09:38:08.178Z,5.46
2016-12-23T09:39:18.548Z,5.49
2016-12-23T09:40:28.876Z,5.46
2016-12-23T09:41:39.240Z,5.37
2016-12-23T09:42:49.578Z,5.46
2016-12-23T09:43:59.911Z,5.49
2016-12-23T09:45:10.255Z,5.45
2016-12-23T09:46:20.270Z,5.49
2016-12-23T09:47:29.972Z,5.57
2016-12-23T09:48:40.309Z,5.6
2016-12-23T09:49:50.659Z,5.7
2016-12-23T09:51:01.028Z,5.67
2016-12-23T09:52:10.753Z,5.8
2016-12-23T09:53:20.786Z,5.84
2016-12-23T09:54:30.837Z,5.88
2016-12-23T09:55:41.204Z,6.02
2016-12-23T09:56:51.593Z,6.13
2016-12-23T09:58:01.944Z,6.13
2016-12-23T09:59:11.983Z,6.17
2016-12-23T10:00:22.360Z,6.15
2016-12-23T10:01:32.723Z,6.15
2016-12-23T10:02:43.085Z,6.15
2016-12-23T10:03:53.108Z,6.05
2016-12-23T10:05:03.447Z,5.98
2016-12-23T10:06:13.820Z,5.87
2016-12-23T10:07:24.132Z,5.98
2016-12-23T10:08:33.560Z,6.06
2016-12-23T10:09:43.891Z,6.1
2016-12-23T10:10:54.221Z,6.07
2016-12-23T10:12:04.224Z,6.07
2016-12-23T10:13:14.605Z,6.28
2016-12-23T10:14:24.944Z,6.25
2016-12-23T10:15:35.283Z,6.34
2016-12-23T10:16:45.622Z,6.33
2016-12-23T10:17:55.638Z,6.42
2016-12-23T10:19:05.685Z,6.2
2016-12-23T10:20:15.743Z,6.2
2016-12-23T10:21:26.112Z,6.15
2016-12-23T10:22:36.498Z,6.07
2016-12-23T10:23:46.881Z,6.06
2016-12-23T10:24:57.261Z,6.02
2016-12-23T10:26:07.646Z,6.28
2016-12-23T10:27:17.705Z,6.29
2016-12-23T10:28:28.115Z,6.44
2016-12-23T10:29:38.702Z,6.64
2016-12-23T10:30:49.012Z,6.75
2016-12-23T10:31:59.407Z,6.83
2016-12-23T10:33:09.794Z,7
2016-12-23T10:34:20.172Z,6.95
2016-12-23T10:35:31.026Z,7.05
2016-12-23T10:36:41.420Z,7.16
2016-12-23T10:37:52.011Z,7.21
2016-12-23T10:39:02.381Z,7.27
2016-12-23T10:40:12.729Z,7.26
2016-12-23T10:41:23.078Z,7.21
2016-12-23T10:42:33.420Z,7.23
2016-12-23T10:43:43.454Z,7.48
2016-12-23T10:44:53.772Z,7.74
2016-12-23T10:46:03.500Z,7.96
2016-12-23T10:47:13.851Z,8.16
2016-12-23T10:48:24.197Z,8.39
2016-12-23T10:49:34.530Z,8.46
2016-12-23T10:50:44.874Z,8.44
2016-12-23T10:51:55.218Z,8.43
2016-12-23T10:53:05.550Z,8.42
2016-12-23T10:54:15.578Z,8.34
2016-12-23T10:55:25.970Z,8.24
2016-12-23T10:56:36.295Z,8.14
2016-12-23T10:57:46.293Z,8.19
2016-12-23T10:58:56.636Z,8.25
2016-12-23T11:00:06.976Z,8.31
2016-12-23T11:01:17.312Z,8.35
2016-12-23T11:02:27.335Z,8.32
2016-12-23T11:03:37.670Z,8.32
2016-12-23T11:04:47.695Z,8.22
2016-12-23T11:05:58.054Z,8.14
2016-12-23T11:07:08.389Z,8.17
2016-12-23T11:08:18.711Z,8.14
2016-12-23T11:09:28.741Z,8.25
2016-12-23T11:10:39.057Z,8.17
2016-12-23T11:11:49.393Z,8.22
2016-12-23T11:12:59.761Z,8.22
2016-12-23T11:14:09.772Z,8.11
2016-12-23T11:15:20.124Z,8.1
2016-12-23T11:16:30.465Z,8.06
2016-12-23T11:17:40.810Z,8.1
2016-12-23T11:18:51.141Z,8.13
2016-12-23T11:20:01.495Z,8.19
2016-12-23T11:21:11.546Z,8.11
2016-12-23T11:22:21.874Z,8.09
2016-12-23T11:23:32.208Z,8.13
2016-12-23T11:24:42.215Z,7.99
2016-12-23T11:25:52.543Z,7.96
2016-12-23T11:27:02.880Z,7.93
2016-12-23T11:28:13.213Z,7.91
2016-12-23T11:29:23.239Z,7.93
2016-12-23T11:30:33.293Z,7.95
2016-12-23T11:31:43.642Z,7.91
2016-12-23T11:32:53.972Z,7.96
2016-12-23T11:34:04.005Z,7.96
2016-12-23T11:35:14.353Z,8.01
2016-12-23T11:36:24.690Z,7.99
2016-12-23T11:37:35.021Z,7.93
2016-12-23T11:38:45.355Z,8.06
2016-12-23T11:39:55.378Z,8.04
2016-12-23T11:41:05.396Z,7.99
2016-12-23T11:42:15.431Z,7.99
2016-12-23T11:43:25.141Z,8.01
2016-12-23T11:44:35.471Z,7.96
2016-12-23T11:45:45.505Z,8.01
2016-12-23T11:46:55.860Z,7.93
2016-12-23T11:48:06.181Z,7.96
2016-12-23T11:49:16.537Z,7.89
2016-12-23T11:50:26.623Z,7.85
2016-12-23T11:51:36.957Z,7.89
2016-12-23T11:52:47.311Z,7.83
2016-12-23T11:53:57.659Z,7.86
2016-12-23T11:55:07.718Z,7.7
2016-12-23T11:56:18.053Z,7.82
2016-12-23T11:57:28.397Z,7.91
2016-12-23T11:58:38.762Z,7.78
2016-12-23T11:59:49.103Z,7.74
2016-12-23T12:00:59.441Z,7.7
2016-12-23T12:02:09.471Z,7.7
2016-12-23T12:03:19.815Z,7.73
2016-12-23T12:04:29.861Z,7.7
2016-12-23T12:05:40.229Z,7.74
2016-12-23T12:06:50.251Z,7.74
2016-12-23T12:08:00.602Z,7.71
2016-12-23T12:09:10.620Z,7.7
2016-12-23T12:10:20.943Z,7.68
2016-12-23T12:11:31.282Z,7.63
2016-12-23T12:12:41.624Z,7.7
2016-12-23T12:13:51.959Z,7.59
2016-12-23T12:15:02.297Z,7.61
2016-12-23T12:16:12.629Z,7.59
2016-12-23T12:17:22.963Z,7.59
2016-12-23T12:18:33.309Z,7.54
2016-12-23T12:19:43.644Z,7.68
2016-12-23T12:20:53.711Z,7.61
2016-12-23T12:22:04.083Z,7.59
2016-12-23T12:23:14.403Z,7.73
2016-12-23T12:24:24.428Z,7.7
2016-12-23T12:25:35.007Z,7.74
2016-12-23T12:26:45.349Z,7.73
2016-12-23T12:27:55.694Z,7.8
2016-12-23T12:29:06.057Z,7.78
2016-12-23T12:30:16.311Z,7.88
2016-12-23T12:31:26.652Z,7.73
2016-12-23T12:32:36.988Z,7.91
2016-12-23T12:33:47.007Z,7.78
2016-12-23T12:34:57.339Z,7.85
2016-12-23T12:36:07.361Z,7.83
2016-12-23T12:37:17.711Z,7.86
2016-12-23T12:38:28.032Z,7.91
2016-12-23T12:39:38.372Z,7.91
2016-12-23T12:40:48.708Z,7.88
2016-12-23T12:41:58.727Z,7.91
2016-12-23T12:43:09.107Z,7.96
2016-12-23T12:44:19.430Z,7.95
2016-12-23T12:45:29.802Z,7.93
2016-12-23T12:46:39.859Z,8.01
2016-12-23T12:47:50.196Z,7.96
2016-12-23T12:49:00.232Z,8.03
2016-12-23T12:50:10.608Z,8.03
2016-12-23T12:51:20.624Z,7.99
2016-12-23T12:52:30.980Z,7.98
2016-12-23T12:53:41.010Z,7.96
2016-12-23T12:54:51.030Z,7.95
2016-12-23T12:56:01.381Z,7.92
2016-12-23T12:57:11.715Z,7.95
2016-12-23T12:58:22.045Z,7.89
2016-12-23T12:59:32.380Z,7.82
2016-12-23T13:00:42.765Z,7.73
2016-12-23T13:01:53.109Z,7.73
2016-12-23T13:03:03.179Z,7.58
2016-12-23T13:04:13.226Z,7.48
2016-12-23T13:05:23.241Z,7.45
2016-12-23T13:06:33.850Z,7.4
2016-12-23T13:07:44.229Z,7.3
2016-12-23T13:08:54.589Z,7.23
2016-12-23T13:10:04.931Z,7.29
2016-12-23T13:11:15.279Z,7.23
2016-12-23T13:12:25.625Z,7.12
2016-12-23T13:13:35.968Z,7.08
2016-12-23T13:14:45.987Z,7.04
2016-12-23T13:15:56.333Z,6.98
2016-12-23T13:17:06.688Z,6.95
2016-12-23T13:18:17.280Z,6.93
2016-12-23T13:19:27.310Z,6.86
2016-12-23T13:20:37.658Z,6.93
2016-12-23T13:21:47.694Z,6.94
2016-12-23T13:22:58.044Z,7
2016-12-23T13:24:07.446Z,7.03
2016-12-23T13:25:17.464Z,6.98
2016-12-23T13:26:27.795Z,6.97
2016-12-23T13:27:38.140Z,6.93
2016-12-23T13:28:48.500Z,7
2016-12-23T13:29:58.821Z,7.01
2016-12-23T13:31:09.152Z,6.98
2016-12-23T13:32:18.868Z,6.97
2016-12-23T13:33:29.212Z,6.85
2016-12-23T13:34:39.562Z,6.7
2016-12-23T13:35:49.894Z,6.65
2016-12-23T13:37:00.221Z,6.65
2016-12-23T13:38:10.543Z,6.67
2016-12-23T13:39:20.875Z,6.62
2016-12-23T13:40:31.225Z,6.72
2016-12-23T13:41:41.554Z,6.68
2016-12-23T13:42:51.899Z,6.65
2016-12-23T13:44:02.272Z,6.61
2016-12-23T13:45:12.859Z,6.64
2016-12-23T13:46:23.239Z,6.57
2016-12-23T13:47:33.272Z,6.49
2016-12-23T13:48:43.330Z,6.55
2016-12-23T13:49:53.664Z,6.62
2016-12-23T13:51:04.005Z,6.54
2016-12-23T13:52:14.253Z,6.58
2016-12-23T13:53:24.670Z,6.61
2016-12-23T13:54:35.000Z,6.6
2016-12-23T13:55:44.728Z,6.51
2016-12-23T13:56:55.109Z,6.54
2016-12-23T13:58:05.529Z,6.51
2016-12-23T13:59:15.559Z,6.55
2016-12-23T14:00:25.577Z,6.51
2016-12-23T14:01:35.597Z,6.55
2016-12-23T14:02:45.937Z,6.55
2016-12-23T14:03:56.276Z,6.57
2016-12-23T14:05:06.308Z,6.61
2016-12-23T14:06:16.673Z,6.61
2016-12-23T14:07:26.998Z,6.57
2016-12-23T14:08:37.026Z,6.57
2016-12-23T14:09:47.383Z,6.54
2016-12-23T14:10:57.407Z,6.6
2016-12-23T14:12:07.752Z,6.52
2016-12-23T14:13:17.768Z,6.51
2016-12-23T14:14:28.117Z,6.55
2016-12-23T14:15:38.442Z,6.52
2016-12-23T14:16:48.478Z,6.54
2016-12-23T14:17:58.527Z,6.46
2016-12-23T14:19:08.866Z,6.47
2016-12-23T14:20:19.208Z,6.46
2016-12-23T14:21:29.540Z,6.46
2016-12-23T14:22:39.557Z,6.4
2016-12-23T14:23:49.908Z,6.49
2016-12-23T14:25:00.241Z,6.51
2016-12-23T14:26:10.623Z,6.46
2016-12-23T14:27:20.340Z,6.46
2016-12-23T14:28:30.686Z,6.52
2016-12-23T14:29:41.040Z,6.44
2016-12-23T14:31:11.562Z,6.44
2016-12-23T14:32:21.575Z,6.44
2016-12-23T14:33:31.945Z,6.47
2016-12-23T14:34:42.282Z,6.39
2016-12-23T14:35:52.619Z,6.37
2016-12-23T14:37:02.985Z,6.52
2016-12-23T14:38:13.319Z,6.39
2016-12-23T14:39:23.680Z,6.44
2016-12-23T14:40:33.708Z,6.37
2016-12-23T14:41:44.084Z,6.42
2016-12-23T14:42:54.431Z,6.33
2016-12-23T14:44:04.794Z,6.37
2016-12-23T14:45:15.134Z,6.39
2016-12-23T14:46:25.457Z,6.4
2016-12-23T14:47:35.497Z,6.44
2016-12-23T14:48:45.816Z,6.4
2016-12-23T14:49:56.151Z,6.34
2016-12-23T14:51:06.477Z,6.47
2016-12-23T14:52:16.805Z,6.36
2016-12-23T14:53:27.162Z,6.29
2016-12-23T14:54:37.199Z,6.4
2016-12-23T14:55:47.547Z,6.33
2016-12-23T14:56:57.576Z,6.28
2016-12-23T14:58:07.920Z,6.28
2016-12-23T14:59:18.283Z,6.2
2016-12-23T15:00:28.329Z,6.1
2016-12-23T15:01:38.667Z,6.17
2016-12-23T15:02:48.763Z,6.24
2016-12-23T15:03:59.193Z,6.26
2016-12-23T15:05:09.574Z,6.25
2016-12-23T15:06:19.688Z,6.15
2016-12-23T15:07:30.057Z,6.14
2016-12-23T15:08:40.168Z,6.15
2016-12-23T15:09:50.219Z,6.18
2016-12-23T15:11:00.590Z,6.14
2016-12-23T15:12:10.992Z,6.14
2016-12-23T15:13:21.381Z,6.13
2016-12-23T15:14:31.784Z,6.17
2016-12-23T15:15:42.182Z,6.13
2016-12-23T15:16:52.253Z,6.06
2016-12-23T15:18:02.682Z,6.03
2016-12-23T15:19:12.744Z,5.88
2016-12-23T15:20:23.124Z,5.87
2016-12-23T15:21:33.512Z,5.81
2016-12-23T15:22:44.043Z,5.81
2016-12-23T15:23:54.456Z,5.87
2016-12-23T15:25:04.859Z,5.81
2016-12-23T15:26:14.966Z,5.82
2016-12-23T15:27:25.353Z,5.84
2016-12-23T15:28:35.784Z,5.81
2016-12-23T15:29:45.534Z,5.75
2016-12-23T15:30:55.572Z,5.78
2016-12-23T15:32:05.998Z,5.72
2016-12-23T15:33:15.752Z,5.81
2016-12-23T15:34:26.172Z,5.78
2016-12-23T15:35:36.518Z,5.8
2016-12-23T15:36:46.877Z,5.82
2016-12-23T15:37:57.268Z,5.75
2016-12-23T15:39:07.897Z,5.8
2016-12-23T15:40:18.196Z,5.8
2016-12-23T15:41:28.259Z,5.77
2016-12-23T15:42:38.365Z,5.8
2016-12-23T15:43:48.796Z,5.73
2016-12-23T15:44:58.879Z,5.73
2016-12-23T15:46:08.967Z,5.85
2016-12-23T15:47:19.033Z,5.77
2016-12-23T15:48:29.421Z,5.8
2016-12-23T15:49:39.825Z,5.84
2016-12-23T15:50:50.218Z,5.77
2016-12-23T15:52:00.597Z,5.85
2016-12-23T15:53:10.658Z,5.85
2016-12-23T15:54:21.018Z,5.78
2016-12-23T15:55:31.574Z,5.78
2016-12-23T15:56:40.989Z,5.73
2016-12-23T15:57:51.347Z,5.7
2016-12-23T15:59:01.717Z,5.81
2016-12-23T16:00:11.783Z,5.78
2016-12-23T16:01:22.187Z,5.78
2016-12-23T16:02:31.598Z,5.75
2016-12-23T16:03:41.995Z,5.8
2016-12-23T16:04:52.060Z,5.77
2016-12-23T16:06:02.476Z,5.75
2016-12-23T16:07:12.855Z,5.73